Time;durP1;ratioP1;P1;durP2;ratioP2;P2;SDS_P1;SDS_P2;PMS_P1;PMS_P2;Temp;Humidity;BMP_temperature;BMP_pressure;BME280_temperature;BME280_humidity;BME280_pressure;Samples;Min_cycle;Max_cycle;Signal;HPM_P1;HPM_P2
2019/09/06 00:01:10;;;;;;;3.6;2.3;;;;;;;;;;;;;
2019/09/06 00:03:35;;;;;;;3.8;2.3;;;;;;;;;;;;;
2019/09/06 00:06:01;;;;;;;3.6;1.9;;;;;;;;;;;;;
2019/09/06 00:08:24;;;;;;;2.9;1.7;;;;;;;;;;;;;
2019/09/06 00:10:51;;;;;;;2.8;1.7;;;;;;;;;;;;;
2019/09/06 00:13:15;;;;;;;2.5;1.7;;;;;;;;;;;;;
2019/09/06 00:15:39;;;;;;;3.7;1.9;;;;;;;;;;;;;
2019/09/06 00:18:05;;;;;;;4.3;1.8;;;;;;;;;;;;;
2019/09/06 00:20:31;;;;;;;5.3;1.9;;;;;;;;;;;;;
2019/09/06 00:22:55;;;;;;;3.7;2;;;;;;;;;;;;;
2019/09/06 00:25:20;;;;;;;3.3;1.7;;;;;;;;;;;;;
2019/09/06 00:27:45;;;;;;;2.3;1.6;;;;;;;;;;;;;
2019/09/06 00:30:10;;;;;;;3.5;1.7;;;;;;;;;;;;;
2019/09/06 00:32:35;;;;;;;2.7;1.6;;;;;;;;;;;;;
2019/09/06 00:37:25;;;;;;;2.3;1.5;;;;;;;;;;;;;
2019/09/06 00:39:53;;;;;;;2.4;1.6;;;;;;;;;;;;;
2019/09/06 00:42:21;;;;;;;4.1;1.7;;;;;;;;;;;;;
2019/09/06 00:44:41;;;;;;;3.7;1.4;;;;;;;;;;;;;
2019/09/06 00:47:06;;;;;;;2.3;1.4;;;;;;;;;;;;;
2019/09/06 00:49:32;;;;;;;2.6;1.4;;;;;;;;;;;;;
2019/09/06 00:52:18;;;;;;;1.8;1.4;;;;;;;;;;;;;
2019/09/06 00:54:27;;;;;;;2.3;1.4;;;;;;;;;;;;;
2019/09/06 00:56:56;;;;;;;3.5;1.5;;;;;;;;;;;;;
2019/09/06 00:59:18;;;;;;;2;1.6;;;;;;;;;;;;;
2019/09/06 01:01:45;;;;;;;2.4;1.4;;;;;;;;;;;;;
2019/09/06 01:04:09;;;;;;;3.4;1.5;;;;;;;;;;;;;
2019/09/06 01:06:37;;;;;;;3.8;1.6;;;;;;;;;;;;;
2019/09/06 01:09:02;;;;;;;3;1.5;;;;;;;;;;;;;
2019/09/06 01:11:26;;;;;;;2.5;1.6;;;;;;;;;;;;;
2019/09/06 01:13:51;;;;;;;2.9;1.6;;;;;;;;;;;;;
2019/09/06 01:16:19;;;;;;;2.4;1.5;;;;;;;;;;;;;
2019/09/06 01:18:41;;;;;;;3;1.6;;;;;;;;;;;;;
2019/09/06 01:21:07;;;;;;;2;1.4;;;;;;;;;;;;;
2019/09/06 01:23:32;;;;;;;4.7;1.8;;;;;;;;;;;;;
2019/09/06 01:25:59;;;;;;;5.3;1.9;;;;;;;;;;;;;
2019/09/06 01:28:23;;;;;;;3.1;1.6;;;;;;;;;;;;;
2019/09/06 01:30:47;;;;;;;2.4;1.4;;;;;;;;;;;;;
2019/09/06 01:33:12;;;;;;;5.3;1.7;;;;;;;;;;;;;
2019/09/06 01:35:41;;;;;;;3.2;1.4;;;;;;;;;;;;;
2019/09/06 01:38:03;;;;;;;6.8;1.5;;;;;;;;;;;;;
2019/09/06 01:40:32;;;;;;;2.8;1.5;;;;;;;;;;;;;
2019/09/06 01:42:59;;;;;;;2.1;1.5;;;;;;;;;;;;;
2019/09/06 01:45:23;;;;;;;3;1.5;;;;;;;;;;;;;
2019/09/06 01:47:47;;;;;;;1.6;1.3;;;;;;;;;;;;;
2019/09/06 01:50:13;;;;;;;2.7;1.5;;;;;;;;;;;;;
2019/09/06 01:52:40;;;;;;;3.3;1.5;;;;;;;;;;;;;
2019/09/06 01:55:05;;;;;;;3.8;1.6;;;;;;;;;;;;;
2019/09/06 01:57:30;;;;;;;1.8;1.4;;;;;;;;;;;;;
2019/09/06 01:59:57;;;;;;;3.2;1.6;;;;;;;;;;;;;
2019/09/06 02:02:20;;;;;;;3.7;1.5;;;;;;;;;;;;;
2019/09/06 02:04:46;;;;;;;2.7;1.4;;;;;;;;;;;;;
2019/09/06 02:07:11;;;;;;;2.4;1.5;;;;;;;;;;;;;
2019/09/06 02:09:39;;;;;;;3.5;1.5;;;;;;;;;;;;;
2019/09/06 02:12:01;;;;;;;2.8;1.4;;;;;;;;;;;;;
2019/09/06 02:14:27;;;;;;;5.3;1.5;;;;;;;;;;;;;
2019/09/06 02:16:52;;;;;;;3.7;1.5;;;;;;;;;;;;;
2019/09/06 02:19:24;;;;;;;3.4;1.5;;;;;;;;;;;;;
2019/09/06 02:21:45;;;;;;;3.4;1.4;;;;;;;;;;;;;
2019/09/06 02:24:12;;;;;;;2.7;1.5;;;;;;;;;;;;;
2019/09/06 02:26:32;;;;;;;3.3;1.5;;;;;;;;;;;;;
2019/09/06 02:28:59;;;;;;;3.7;1.7;;;;;;;;;;;;;
2019/09/06 02:31:27;;;;;;;1.6;1.3;;;;;;;;;;;;;
2019/09/06 02:33:50;;;;;;;2.4;1.6;;;;;;;;;;;;;
2019/09/06 02:36:16;;;;;;;1.9;1.4;;;;;;;;;;;;;
2019/09/06 02:38:48;;;;;;;3.9;1.7;;;;;;;;;;;;;
2019/09/06 02:41:07;;;;;;;5.3;2.1;;;;;;;;;;;;;
2019/09/06 02:43:34;;;;;;;3.6;1.7;;;;;;;;;;;;;
2019/09/06 02:45:59;;;;;;;3.7;1.8;;;;;;;;;;;;;
2019/09/06 02:48:29;;;;;;;4.3;1.9;;;;;;;;;;;;;
2019/09/06 02:50:51;;;;;;;3.8;2;;;;;;;;;;;;;
2019/09/06 02:53:16;;;;;;;3.1;2.1;;;;;;;;;;;;;
2019/09/06 02:55:41;;;;;;;4.1;1.7;;;;;;;;;;;;;
2019/09/06 02:58:07;;;;;;;3.1;1.9;;;;;;;;;;;;;
2019/09/06 03:00:31;;;;;;;3.3;1.6;;;;;;;;;;;;;
2019/09/06 03:02:57;;;;;;;2.9;1.9;;;;;;;;;;;;;
2019/09/06 03:05:22;;;;;;;2.1;1.6;;;;;;;;;;;;;
2019/09/06 03:07:47;;;;;;;4;1.6;;;;;;;;;;;;;
2019/09/06 03:10:13;;;;;;;3.4;1.8;;;;;;;;;;;;;
2019/09/06 03:12:39;;;;;;;3.3;1.7;;;;;;;;;;;;;
2019/09/06 03:15:06;;;;;;;3.2;1.7;;;;;;;;;;;;;
2019/09/06 03:17:34;;;;;;;4.1;1.5;;;;;;;;;;;;;
2019/09/06 03:19:57;;;;;;;2.9;1.6;;;;;;;;;;;;;
2019/09/06 03:22:22;;;;;;;4.4;1.7;;;;;;;;;;;;;
2019/09/06 03:24:51;;;;;;;3.5;1.7;;;;;;;;;;;;;
2019/09/06 03:27:13;;;;;;;3.7;1.6;;;;;;;;;;;;;
2019/09/06 03:30:18;;;;;;;3;1.9;;;;;;;;;;;;;
2019/09/06 03:32:33;;;;;;;2;1.6;;;;;;;;;;;;;
2019/09/06 03:34:57;;;;;;;3.1;1.7;;;;;;;;;;;;;
2019/09/06 03:37:26;;;;;;;1.9;1.6;;;;;;;;;;;;;
2019/09/06 03:39:47;;;;;;;3.1;1.9;;;;;;;;;;;;;
2019/09/06 03:42:13;;;;;;;3;1.6;;;;;;;;;;;;;
2019/09/06 03:44:37;;;;;;;3.1;1.8;;;;;;;;;;;;;
2019/09/06 03:47:05;;;;;;;3.2;1.7;;;;;;;;;;;;;
2019/09/06 03:49:28;;;;;;;2.9;1.9;;;;;;;;;;;;;
2019/09/06 03:54:22;;;;;;;2.3;1.8;;;;;;;;;;;;;
2019/09/06 03:56:50;;;;;;;4;1.8;;;;;;;;;;;;;
2019/09/06 03:59:15;;;;;;;2.8;2;;;;;;;;;;;;;
2019/09/06 04:02:38;;;;;;;3.8;2.1;;;;;;;12.1;85.7002;943.4836;;;;
2019/09/06 04:05:10;;;;;;;2.5;1.9;;;;;;;12.16;84.80762;943.4979;;;;
2019/09/06 04:07:40;;;;;;;4.1;2.1;;;;;;;;;;;;;
2019/09/06 04:10:04;;;;;;;3.6;1.8;;;;;;;;;;;;;
2019/09/06 04:12:30;;;;;;;3.9;2;;;;;;;;;;;;;
2019/09/06 04:14:56;;;;;;;4.2;2.1;;;;;;;;;;;;;
2019/09/06 04:17:21;;;;;;;3.9;2;;;;;;;;;;;;;
2019/09/06 04:19:47;;;;;;;2.2;1.8;;;;;;;;;;;;;
2019/09/06 04:22:11;;;;;;;5.2;2.1;;;;;;;;;;;;;
2019/09/06 04:24:36;;;;;;;2.4;1.8;;;;;;;;;;;;;
2019/09/06 04:27:02;;;;;;;4.5;2.2;;;;;;;;;;;;;
2019/09/06 04:29:27;;;;;;;5.2;1.9;;;;;;;;;;;;;
2019/09/06 04:31:57;;;;;;;5.8;2;;;;;;;;;;;;;
2019/09/06 04:34:18;;;;;;;4.1;1.6;;;;;;;;;;;;;
2019/09/06 04:36:42;;;;;;;4.8;1.7;;;;;;;;;;;;;
2019/09/06 04:39:15;;;;;;;3.8;1.9;;;;;;;;;;;;;
2019/09/06 04:41:34;;;;;;;3.4;1.9;;;;;;;;;;;;;
2019/09/06 04:44:00;;;;;;;4;1.9;;;;;;;;;;;;;
2019/09/06 04:46:26;;;;;;;5.8;2.3;;;;;;;;;;;;;
2019/09/06 04:48:54;;;;;;;5.7;2.1;;;;;;;;;;;;;
2019/09/06 04:51:17;;;;;;;3.2;1.8;;;;;;;;;;;;;
2019/09/06 04:53:42;;;;;;;5.1;2.2;;;;;;;;;;;;;
2019/09/06 04:56:07;;;;;;;4.3;2;;;;;;;;;;;;;
2019/09/06 04:58:33;;;;;;;3.4;1.9;;;;;;;;;;;;;
2019/09/06 05:00:57;;;;;;;5.2;2.3;;;;;;;;;;;;;
2019/09/06 05:03:22;;;;;;;4;2;;;;;;;;;;;;;
2019/09/06 05:05:52;;;;;;;6.4;2.3;;;;;;;;;;;;;
2019/09/06 05:08:18;;;;;;;4.5;2.1;;;;;;;;;;;;;
2019/09/06 05:10:40;;;;;;;3.6;2.1;;;;;;;;;;;;;
2019/09/06 05:13:05;;;;;;;4.5;2.1;;;;;;;;;;;;;
2019/09/06 05:15:29;;;;;;;4.8;3.1;;;;;;;;;;;;;
2019/09/06 05:17:57;;;;;;;3.9;2.6;;;;;;;;;;;;;
2019/09/06 05:20:22;;;;;;;5.8;2.1;;;;;;;;;;;;;
2019/09/06 05:22:48;;;;;;;2.5;2;;;;;;;;;;;;;
2019/09/06 05:25:14;;;;;;;4.7;2.1;;;;;;;;;;;;;
2019/09/06 05:27:40;;;;;;;4.1;2.4;;;;;;;;;;;;;
2019/09/06 05:30:05;;;;;;;3.1;2;;;;;;;;;;;;;
2019/09/06 05:32:32;;;;;;;6;2.1;;;;;;;;;;;;;
2019/09/06 05:34:56;;;;;;;4.5;1.9;;;;;;;;;;;;;
2019/09/06 05:37:24;;;;;;;2.9;1.9;;;;;;;;;;;;;
2019/09/06 05:39:46;;;;;;;3.6;2.2;;;;;;;;;;;;;
2019/09/06 05:42:10;;;;;;;3.3;2;;;;;;;;;;;;;
2019/09/06 05:44:40;;;;;;;5;1.8;;;;;;;;;;;;;
2019/09/06 05:47:05;;;;;;;5;1.9;;;;;;;;;;;;;
2019/09/06 05:49:27;;;;;;;4.8;2;;;;;;;;;;;;;
2019/09/06 05:51:52;;;;;;;3.4;2;;;;;;;;;;;;;
2019/09/06 05:54:22;;;;;;;5.2;2.5;;;;;;;;;;;;;
2019/09/06 05:56:49;;;;;;;4.8;1.9;;;;;;;;;;;;;
2019/09/06 05:59:29;;;;;;;2.9;2;;;;;;;;;;;;;
2019/09/06 06:02:12;;;;;;;5.5;2.3;;;;;;;;;;;;;
2019/09/06 06:04:25;;;;;;;3.5;2.5;;;;;;;;;;;;;
2019/09/06 06:06:49;;;;;;;4.3;2.5;;;;;;;;;;;;;
2019/09/06 06:09:16;;;;;;;3.9;2.1;;;;;;;;;;;;;
2019/09/06 06:11:40;;;;;;;5.1;2.3;;;;;;;;;;;;;
2019/09/06 06:14:06;;;;;;;3.4;2.1;;;;;;;;;;;;;
2019/09/06 06:16:30;;;;;;;4.3;2.2;;;;;;;;;;;;;
2019/09/06 06:18:59;;;;;;;4;2.4;;;;;;;;;;;;;
2019/09/06 06:21:21;;;;;;;3.6;2.2;;;;;;;;;;;;;
2019/09/06 06:23:49;;;;;;;3.1;2.1;;;;;;;;;;;;;
2019/09/06 06:26:17;;;;;;;4.1;2.3;;;;;;;;;;;;;
2019/09/06 06:28:40;;;;;;;5;2.3;;;;;;;;;;;;;
2019/09/06 06:31:05;;;;;;;4.7;2.4;;;;;;;;;;;;;
2019/09/06 06:33:29;;;;;;;5;2.3;;;;;;;;;;;;;
2019/09/06 06:35:54;;;;;;;3.8;2.9;;;;;;;;;;;;;
2019/09/06 06:38:22;;;;;;;7.1;3.5;;;;;;;;;;;;;
2019/09/06 06:40:45;;;;;;;4.4;3.2;;;;;;;;;;;;;
2019/09/06 06:43:10;;;;;;;7;3.4;;;;;;;;;;;;;
2019/09/06 06:45:35;;;;;;;4.5;3.2;;;;;;;;;;;;;
2019/09/06 06:48:04;;;;;;;5.4;3.6;;;;;;;;;;;;;
2019/09/06 06:50:25;;;;;;;5.4;3.4;;;;;;;;;;;;;
2019/09/06 06:52:51;;;;;;;4.5;3.6;;;;;;;;;;;;;
2019/09/06 06:55:15;;;;;;;5.3;3.5;;;;;;;;;;;;;
2019/09/06 06:57:43;;;;;;;5.4;3.7;;;;;;;;;;;;;
2019/09/06 07:00:06;;;;;;;5.7;4;;;;;;;;;;;;;
2019/09/06 07:02:31;;;;;;;6.6;4;;;;;;;;;;;;;
2019/09/06 07:04:56;;;;;;;5.1;3.7;;;;;;;;;;;;;
2019/09/06 07:07:23;;;;;;;4.5;3.4;;;;;;;;;;;;;
2019/09/06 07:09:48;;;;;;;6;3.6;;;;;;;;;;;;;
2019/09/06 07:12:12;;;;;;;4.2;3.5;;;;;;;;;;;;;
2019/09/06 07:14:37;;;;;;;5.3;3.3;;;;;;;;;;;;;
2019/09/06 07:17:04;;;;;;;5.7;3.2;;;;;;;;;;;;;
2019/09/06 07:19:32;;;;;;;6.9;3.5;;;;;;;;;;;;;
2019/09/06 07:21:59;;;;;;;4.4;3.5;;;;;;;;;;;;;
2019/09/06 07:24:29;;;;;;;5.8;3.2;;;;;;;;;;;;;
2019/09/06 07:27:12;;;;;;;5.3;3.1;;;;;;;;;;;;;
2019/09/06 07:29:24;;;;;;;5;3.3;;;;;;;;;;;;;
2019/09/06 07:34:14;;;;;;;4.7;2.9;;;;;;;;;;;;;
2019/09/06 07:36:47;;;;;;;6.2;3;;;;;;;;;;;;;
2019/09/06 07:39:05;;;;;;;6.5;3.8;;;;;;;;;;;;;
2019/09/06 07:41:32;;;;;;;5.6;3.7;;;;;;;;;;;;;
2019/09/06 07:43:57;;;;;;;5.5;3.6;;;;;;;;;;;;;
2019/09/06 07:46:21;;;;;;;7.1;3.6;;;;;;;;;;;;;
2019/09/06 07:48:48;;;;;;;6;3.5;;;;;;;;;;;;;
2019/09/06 07:51:15;;;;;;;6.9;3.5;;;;;;;;;;;;;
2019/09/06 07:53:41;;;;;;;5.1;3.3;;;;;;;;;;;;;
2019/09/06 07:56:04;;;;;;;4.9;3.1;;;;;;;;;;;;;
2019/09/06 07:58:32;;;;;;;5.5;3.1;;;;;;;;;;;;;
2019/09/06 08:00:59;;;;;;;4.4;2.8;;;;;;;;;;;;;
2019/09/06 08:03:22;;;;;;;4.2;3.3;;;;;;;;;;;;;
2019/09/06 08:05:44;;;;;;;6.5;3;;;;;;;;;;;;;
2019/09/06 08:08:14;;;;;;;5.1;2.8;;;;;;;;;;;;;
2019/09/06 08:10:40;;;;;;;6.1;3.7;;;;;;;;;;;;;
2019/09/06 08:13:02;;;;;;;5.8;3.4;;;;;;;;;;;;;
2019/09/06 08:15:31;;;;;;;6.2;3.5;;;;;;;;;;;;;
2019/09/06 08:17:59;;;;;;;8.1;3.6;;;;;;;;;;;;;
2019/09/06 08:20:19;;;;;;;5.6;3.7;;;;;;;;;;;;;
2019/09/06 08:22:43;;;;;;;4.9;3.6;;;;;;;;;;;;;
2019/09/06 08:25:17;;;;;;;4.6;3.6;;;;;;;;;;;;;
2019/09/06 08:27:42;;;;;;;6.5;3.7;;;;;;;;;;;;;
2019/09/06 08:30:18;;;;;;;6.7;3.4;;;;;;;;;;;;;
2019/09/06 08:32:43;;;;;;;5.6;3;;;;;;;;;;;;;
2019/09/06 08:35:17;;;;;;;4.5;3.1;;;;;;;;;;;;;
2019/09/06 08:37:43;;;;;;;4.7;2.9;;;;;;;;;;;;;
2019/09/06 08:40:19;;;;;;;5.6;3.2;;;;;;;;;;;;;
2019/09/06 08:42:45;;;;;;;5.3;3.1;;;;;;;;;;;;;
2019/09/06 08:45:08;;;;;;;7.1;3.6;;;;;;;;;;;;;
2019/09/06 08:47:31;;;;;;;5.5;3.4;;;;;;;;;;;;;
2019/09/06 08:49:56;;;;;;;4.9;2.9;;;;;;;;;;;;;
2019/09/06 08:52:22;;;;;;;5.5;2.9;;;;;;;;;;;;;
2019/09/06 08:54:48;;;;;;;6.5;2.8;;;;;;;;;;;;;
2019/09/06 08:57:11;;;;;;;5.6;2.6;;;;;;;;;;;;;
2019/09/06 08:59:37;;;;;;;5.7;2.8;;;;;;;;;;;;;
2019/09/06 09:02:01;;;;;;;4.6;2.9;;;;;;;;;;;;;
2019/09/06 09:04:32;;;;;;;5.1;2.8;;;;;;;;;;;;;
2019/09/06 09:06:56;;;;;;;6.5;3.2;;;;;;;;;;;;;
2019/09/06 09:09:26;;;;;;;3.7;2.7;;;;;;;;;;;;;
2019/09/06 09:11:46;;;;;;;4.9;3;;;;;;;;;;;;;
2019/09/06 09:14:15;;;;;;;6.1;2.8;;;;;;;;;;;;;
2019/09/06 09:16:39;;;;;;;4.5;2.8;;;;;;;;;;;;;
2019/09/06 09:19:02;;;;;;;5.4;2.9;;;;;;;;;;;;;
2019/09/06 09:21:29;;;;;;;6.4;2.9;;;;;;;;;;;;;
2019/09/06 09:23:55;;;;;;;5.4;3;;;;;;;;;;;;;
2019/09/06 09:26:20;;;;;;;7.1;2.9;;;;;;;;;;;;;
2019/09/06 09:28:46;;;;;;;8.4;3.2;;;;;;;;;;;;;
2019/09/06 09:31:11;;;;;;;5.8;2.6;;;;;;;;;;;;;
2019/09/06 09:33:37;;;;;;;4.8;2.8;;;;;;;;;;;;;
2019/09/06 09:36:01;;;;;;;5.2;2.7;;;;;;;;;;;;;
2019/09/06 09:38:27;;;;;;;8.5;3.1;;;;;;;;;;;;;
2019/09/06 09:40:53;;;;;;;7.1;3.2;;;;;;;;;;;;;
2019/09/06 09:43:17;;;;;;;7.2;3.1;;;;;;;;;;;;;
2019/09/06 09:45:43;;;;;;;5;2.7;;;;;;;;;;;;;
2019/09/06 09:48:11;;;;;;;6.9;3;;;;;;;;;;;;;
2019/09/06 09:50:35;;;;;;;6.5;3.2;;;;;;;;;;;;;
2019/09/06 09:53:00;;;;;;;4.9;2.8;;;;;;;;;;;;;
2019/09/06 09:55:26;;;;;;;7.1;3.2;;;;;;;;;;;;;
2019/09/06 09:57:53;;;;;;;6.4;3.3;;;;;;;;;;;;;
2019/09/06 10:00:18;;;;;;;7;3.5;;;;;;;;;;;;;
2019/09/06 10:02:40;;;;;;;6.7;3.2;;;;;;;;;;;;;
2019/09/06 10:05:07;;;;;;;6.7;3.9;;;;;;;;;;;;;
2019/09/06 10:07:34;;;;;;;6.5;3.7;;;;;;;;;;;;;
2019/09/06 10:09:58;;;;;;;7.6;4;;;;;;;;;;;;;
2019/09/06 10:12:22;;;;;;;8.5;3.8;;;;;;;;;;;;;
2019/09/06 10:14:47;;;;;;;7.3;3.8;;;;;;;;;;;;;
2019/09/06 10:17:13;;;;;;;6.7;3.9;;;;;;;;;;;;;
2019/09/06 10:19:43;;;;;;;5.5;3.5;;;;;;;;;;;;;
2019/09/06 10:22:15;;;;;;;11.7;3.9;;;;;;;;;;;;;
2019/09/06 10:24:39;;;;;;;8.3;3.5;;;;;;;;;;;;;
2019/09/06 10:27:06;;;;;;;6.6;3.4;;;;;;;;;;;;;
2019/09/06 10:29:30;;;;;;;6;3.4;;;;;;;;;;;;;
2019/09/06 10:31:55;;;;;;;8.8;3.7;;;;;;;;;;;;;
2019/09/06 10:34:22;;;;;;;8.8;4;;;;;;;;;;;;;
2019/09/06 10:36:48;;;;;;;5.3;3.1;;;;;;;;;;;;;
2019/09/06 10:39:14;;;;;;;6.2;2.8;;;;;;;;;;;;;
2019/09/06 10:41:43;;;;;;;7.2;3;;;;;;;;;;;;;
2019/09/06 10:44:06;;;;;;;5.2;3;;;;;;;;;;;;;
2019/09/06 10:46:29;;;;;;;8.2;3.1;;;;;;;;;;;;;
2019/09/06 10:48:55;;;;;;;9.1;2.9;;;;;;;;;;;;;
2019/09/06 10:51:21;;;;;;;5.6;2.9;;;;;;;;;;;;;
2019/09/06 10:53:45;;;;;;;5.9;3.1;;;;;;;;;;;;;
2019/09/06 10:56:16;;;;;;;6.6;2.8;;;;;;;;;;;;;
2019/09/06 10:58:41;;;;;;;6.7;2.8;;;;;;;;;;;;;
2019/09/06 11:01:07;;;;;;;7.7;3.2;;;;;;;;;;;;;
2019/09/06 11:03:30;;;;;;;10.9;3.4;;;;;;;;;;;;;
2019/09/06 11:06:00;;;;;;;5.9;2.8;;;;;;;;;;;;;
2019/09/06 11:08:22;;;;;;;7.6;3.2;;;;;;;;;;;;;
2019/09/06 11:11:17;;;;;;;7.6;2.9;;;;;;;;;;;;;
2019/09/06 11:13:40;;;;;;;6.8;3.4;;;;;;;;;;;;;
2019/09/06 11:16:08;;;;;;;6.9;3.1;;;;;;;;;;;;;
2019/09/06 11:18:32;;;;;;;6.5;2.8;;;;;;;;;;;;;
2019/09/06 11:20:57;;;;;;;6.3;2.9;;;;;;;;;;;;;
2019/09/06 11:23:23;;;;;;;6.1;3.1;;;;;;;;;;;;;
2019/09/06 11:25:53;;;;;;;6.4;3.4;;;;;;;;;;;;;
2019/09/06 11:28:15;;;;;;;8.2;3.2;;;;;;;;;;;;;
2019/09/06 11:30:38;;;;;;;6.5;3.2;;;;;;;;;;;;;
2019/09/06 11:33:04;;;;;;;8.2;3;;;;;;;;;;;;;
2019/09/06 11:35:32;;;;;;;5.8;2.8;;;;;;;;;;;;;
2019/09/06 11:37:58;;;;;;;7.4;2.9;;;;;;;;;;;;;
2019/09/06 11:40:31;;;;;;;7.4;3;;;;;;;;;;;;;
2019/09/06 11:42:49;;;;;;;6.2;3.1;;;;;;;;;;;;;
2019/09/06 11:45:14;;;;;;;7.5;3;;;;;;;;;;;;;
2019/09/06 11:47:44;;;;;;;7.1;2.9;;;;;;;;;;;;;
2019/09/06 11:50:07;;;;;;;10;3.2;;;;;;;;;;;;;
2019/09/06 11:52:33;;;;;;;4.6;3;;;;;;;;;;;;;
2019/09/06 11:54:58;;;;;;;8.6;3.5;;;;;;;;;;;;;
2019/09/06 11:57:24;;;;;;;6.9;2.8;;;;;;;;;;;;;
2019/09/06 11:59:49;;;;;;;5.2;2.9;;;;;;;;;;;;;
2019/09/06 12:02:15;;;;;;;7.4;2.6;;;;;;;;;;;;;
2019/09/06 12:04:45;;;;;;;24.9;3.6;;;;;;;;;;;;;
2019/09/06 12:07:10;;;;;;;7.7;2.9;;;;;;;;;;;;;
2019/09/06 12:09:34;;;;;;;7.1;3;;;;;;;;;;;;;
2019/09/06 12:12:01;;;;;;;4.7;2.7;;;;;;;;;;;;;
2019/09/06 12:14:27;;;;;;;4.8;2.6;;;;;;;;;;;;;
2019/09/06 12:16:52;;;;;;;8.1;3.1;;;;;;;;;;;;;
2019/09/06 12:19:22;;;;;;;6.9;3.3;;;;;;;;;;;;;
2019/09/06 12:21:42;;;;;;;7.3;3.2;;;;;;;;;;;;;
2019/09/06 12:24:07;;;;;;;10;3.3;;;;;;;;;;;;;
2019/09/06 12:26:39;;;;;;;8.4;3.2;;;;;;;;;;;;;
2019/09/06 12:29:00;;;;;;;6.6;3.8;;;;;;;;;;;;;
2019/09/06 12:31:23;;;;;;;9.1;3.8;;;;;;;;;;;;;
2019/09/06 12:33:48;;;;;;;8.1;3.6;;;;;;;;;;;;;
2019/09/06 12:36:13;;;;;;;8.6;4.1;;;;;;;;;;;;;
2019/09/06 12:38:43;;;;;;;8.6;4.1;;;;;;;;;;;;;
2019/09/06 12:41:05;;;;;;;8.8;4;;;;;;;;;;;;;
2019/09/06 12:43:31;;;;;;;7.3;4.3;;;;;;;;;;;;;
2019/09/06 12:45:58;;;;;;;8.3;4.3;;;;;;;;;;;;;
2019/09/06 12:48:22;;;;;;;8.7;3.5;;;;;;;;;;;;;
2019/09/06 12:50:48;;;;;;;7.3;3.7;;;;;;;;;;;;;
2019/09/06 12:53:11;;;;;;;9.1;4.5;;;;;;;;;;;;;
2019/09/06 12:55:40;;;;;;;7.2;4;;;;;;;;;;;;;
2019/09/06 12:58:04;;;;;;;8.9;4.1;;;;;;;;;;;;;
2019/09/06 13:00:28;;;;;;;6.7;3.7;;;;;;;;;;;;;
2019/09/06 13:02:53;;;;;;;8.4;3.8;;;;;;;;;;;;;
2019/09/06 13:05:22;;;;;;;8.7;3.7;;;;;;;;;;;;;
2019/09/06 13:07:46;;;;;;;6;3.6;;;;;;;;;;;;;
2019/09/06 13:10:11;;;;;;;7.2;3.9;;;;;;;;;;;;;
2019/09/06 13:12:38;;;;;;;9.7;3.6;;;;;;;;;;;;;
2019/09/06 13:15:02;;;;;;;8.2;3.6;;;;;;;;;;;;;
2019/09/06 13:17:27;;;;;;;8;3.7;;;;;;;;;;;;;
2019/09/06 13:19:52;;;;;;;7.4;3.6;;;;;;;;;;;;;
2019/09/06 13:22:19;;;;;;;7.6;4.2;;;;;;;;;;;;;
2019/09/06 13:24:42;;;;;;;9.4;4.3;;;;;;;;;;;;;
2019/09/06 13:27:09;;;;;;;6.5;4.2;;;;;;;;;;;;;
2019/09/06 13:29:34;;;;;;;8.3;3.9;;;;;;;;;;;;;
2019/09/06 13:32:04;;;;;;;7.1;4.2;;;;;;;;;;;;;
2019/09/06 13:34:24;;;;;;;8.2;4.2;;;;;;;;;;;;;
2019/09/06 13:36:56;;;;;;;8.6;4.6;;;;;;;;;;;;;
2019/09/06 13:39:21;;;;;;;9.9;4.4;;;;;;;;;;;;;
2019/09/06 13:41:44;;;;;;;7.5;4.3;;;;;;;;;;;;;
2019/09/06 13:44:09;;;;;;;9.4;4.5;;;;;;;;;;;;;
2019/09/06 13:46:43;;;;;;;7.5;4.3;;;;;;;;;;;;;
2019/09/06 13:49:15;;;;;;;8.7;4.5;;;;;;;;;;;;;
2019/09/06 13:52:18;;;;;;;7.8;4.6;;;;;;;;;;;;;
2019/09/06 13:54:32;;;;;;;8.8;4.7;;;;;;;;;;;;;
2019/09/06 13:56:59;;;;;;;9.2;5.2;;;;;;;;;;;;;
2019/09/06 13:59:22;;;;;;;8.4;4.7;;;;;;;;;;;;;
2019/09/06 14:01:47;;;;;;;7.6;4.5;;;;;;;;;;;;;
2019/09/06 14:04:12;;;;;;;9.2;5.2;;;;;;;;;;;;;
2019/09/06 14:06:46;;;;;;;9.3;4.4;;;;;;;;;;;;;
2019/09/06 14:09:09;;;;;;;7.9;4;;;;;;;;;;;;;
2019/09/06 14:11:38;;;;;;;10.3;4.3;;;;;;;;;;;;;
2019/09/06 14:14:02;;;;;;;9;4.8;;;;;;;;;;;;;
2019/09/06 14:16:32;;;;;;;8.7;3.8;;;;;;;;;;;;;
2019/09/06 14:19:16;;;;;;;8.3;4.1;;;;;;;;;;;;;
2019/09/06 14:21:18;;;;;;;7.5;3.6;;;;;;;;;;;;;
2019/09/06 14:23:43;;;;;;;6.5;3.6;;;;;;;;;;;;;
2019/09/06 14:26:09;;;;;;;9.6;4.1;;;;;;;;;;;;;
2019/09/06 14:28:35;;;;;;;7.1;4;;;;;;;;;;;;;
2019/09/06 14:31:01;;;;;;;6.4;3.8;;;;;;;;;;;;;
2019/09/06 14:33:26;;;;;;;9.2;4.6;;;;;;;;;;;;;
2019/09/06 14:35:51;;;;;;;7.1;4.1;;;;;;;;;;;;;
2019/09/06 14:38:16;;;;;;;10;4.7;;;;;;;;;;;;;
2019/09/06 14:40:43;;;;;;;9.2;4.7;;;;;;;;;;;;;
2019/09/06 14:43:07;;;;;;;8.7;4.5;;;;;;;;;;;;;
2019/09/06 14:45:31;;;;;;;7.7;4.5;;;;;;;;;;;;;
2019/09/06 14:47:57;;;;;;;8.2;4.9;;;;;;;;;;;;;
2019/09/06 14:50:26;;;;;;;7.5;4.7;;;;;;;;;;;;;
2019/09/06 14:52:48;;;;;;;8.8;5.3;;;;;;;;;;;;;
2019/09/06 14:55:21;;;;;;;10;5.2;;;;;;;;;;;;;
2019/09/06 14:57:46;;;;;;;9.8;5.2;;;;;;;;;;;;;
2019/09/06 15:00:11;;;;;;;8.8;5.2;;;;;;;;;;;;;
2019/09/06 15:02:39;;;;;;;11.1;5;;;;;;;;;;;;;
2019/09/06 15:05:01;;;;;;;8.8;5;;;;;;;;;;;;;
2019/09/06 15:07:32;;;;;;;9.6;5.6;;;;;;;;;;;;;
2019/09/06 15:09:58;;;;;;;13.2;5.4;;;;;;;;;;;;;
2019/09/06 15:12:21;;;;;;;11.5;5.4;;;;;;;;;;;;;
2019/09/06 15:14:47;;;;;;;13.4;6.2;;;;;;;;;;;;;
2019/09/06 15:17:16;;;;;;;10.3;5.4;;;;;;;;;;;;;
2019/09/06 15:19:38;;;;;;;11.1;4.7;;;;;;;;;;;;;
2019/09/06 15:22:02;;;;;;;6.6;4.3;;;;;;;;;;;;;
2019/09/06 15:24:28;;;;;;;10.1;5.1;;;;;;;;;;;;;
2019/09/06 15:26:54;;;;;;;8.3;4.9;;;;;;;;;;;;;
2019/09/06 15:29:20;;;;;;;9.6;5.3;;;;;;;;;;;;;
2019/09/06 15:31:42;;;;;;;11.9;6.6;;;;;;;;;;;;;
2019/09/06 15:34:09;;;;;;;8.9;5;;;;;;;;;;;;;
2019/09/06 15:36:51;;;;;;;9.9;4.4;;;;;;;;;;;;;
2019/09/06 15:39:19;;;;;;;6;4.2;;;;;;;;;;;;;
2019/09/06 15:41:38;;;;;;;7.5;4;;;;;;;;;;;;;
2019/09/06 15:44:08;;;;;;;8.5;4.2;;;;;;;;;;;;;
2019/09/06 15:46:29;;;;;;;9.8;4.9;;;;;;;;;;;;;
2019/09/06 15:48:54;;;;;;;10.6;6;;;;;;;;;;;;;
2019/09/06 15:51:17;;;;;;;11.3;6;;;;;;;;;;;;;
2019/09/06 15:53:50;;;;;;;8.4;5;;;;;;;;;;;;;
2019/09/06 15:56:24;;;;;;;8.1;4.9;;;;;;;;;;;;;
2019/09/06 15:58:51;;;;;;;8.6;5.1;;;;;;;;;;;;;
2019/09/06 16:01:19;;;;;;;8.2;4.9;;;;;;;;;;;;;
2019/09/06 16:03:44;;;;;;;6.5;5.1;;;;;;;;;;;;;
2019/09/06 16:06:12;;;;;;;7.9;4.4;;;;;;;;;;;;;
2019/09/06 16:08:36;;;;;;;10.2;4.8;;;;;;;;;;;;;
2019/09/06 16:11:08;;;;;;;10.6;4.1;;;;;;;;;;;;;
2019/09/06 16:13:31;;;;;;;7.4;4.6;;;;;;;;;;;;;
2019/09/06 16:15:54;;;;;;;7.5;4.1;;;;;;;;;;;;;
2019/09/06 16:18:20;;;;;;;6.3;3.6;;;;;;;;;;;;;
2019/09/06 16:20:48;;;;;;;6.5;3.4;;;;;;;;;;;;;
2019/09/06 16:23:11;;;;;;;5.1;3.6;;;;;;;;;;;;;
2019/09/06 16:25:46;;;;;;;6;3.8;;;;;;;;;;;;;
2019/09/06 16:28:15;;;;;;;9.2;4.1;;;;;;;;;;;;;
2019/09/06 16:30:33;;;;;;;7.1;3.7;;;;;;;;;;;;;
2019/09/06 16:33:06;;;;;;;8.4;3.8;;;;;;;;;;;;;
2019/09/06 16:35:36;;;;;;;6.6;3.4;;;;;;;;;;;;;
2019/09/06 16:38:09;;;;;;;8.5;3.9;;;;;;;;;;;;;
2019/09/06 16:40:34;;;;;;;6.5;3.7;;;;;;;;;;;;;
2019/09/06 16:42:58;;;;;;;8.2;4;;;;;;;;;;;;;
2019/09/06 16:45:29;;;;;;;6.5;3.9;;;;;;;;;;;;;
2019/09/06 16:47:51;;;;;;;7.4;4.3;;;;;;;;;;;;;
2019/09/06 16:50:13;;;;;;;8;3.6;;;;;;;;;;;;;
2019/09/06 16:52:39;;;;;;;8.1;3.4;;;;;;;;;;;;;
2019/09/06 16:55:08;;;;;;;7.2;4.3;;;;;;;;;;;;;
2019/09/06 16:57:32;;;;;;;7;5;;;;;;;;;;;;;
2019/09/06 17:00:16;;;;;;;9.5;5.3;;;;;;;;;;;;;
2019/09/06 17:02:36;;;;;;;8.8;5.1;;;;;;;;;;;;;
2019/09/06 17:05:03;;;;;;;10;5.2;;;;;;;;;;;;;
2019/09/06 17:07:31;;;;;;;8.7;5;;;;;;;;;;;;;
2019/09/06 17:09:55;;;;;;;7.7;4.8;;;;;;;;;;;;;
2019/09/06 17:12:21;;;;;;;6.8;4.2;;;;;;;;;;;;;
2019/09/06 17:14:49;;;;;;;7.9;4.1;;;;;;;;;;;;;
2019/09/06 17:17:12;;;;;;;6.9;3.9;;;;;;;;;;;;;
2019/09/06 17:19:37;;;;;;;6.8;3.6;;;;;;;;;;;;;
2019/09/06 17:22:04;;;;;;;9.9;3.7;;;;;;;;;;;;;
2019/09/06 17:24:32;;;;;;;7.5;3.7;;;;;;;;;;;;;
2019/09/06 17:26:57;;;;;;;7.2;4;;;;;;;;;;;;;
2019/09/06 17:29:24;;;;;;;7.5;4.2;;;;;;;;;;;;;
2019/09/06 17:31:51;;;;;;;10.2;4.8;;;;;;;;;;;;;
2019/09/06 17:34:14;;;;;;;10.3;4.9;;;;;;;;;;;;;
2019/09/06 17:36:38;;;;;;;9.1;4.9;;;;;;;;;;;;;
2019/09/06 17:39:06;;;;;;;7.4;4.6;;;;;;;;;;;;;
2019/09/06 17:41:28;;;;;;;7.7;5;;;;;;;;;;;;;
2019/09/06 17:43:56;;;;;;;10.8;4.5;;;;;;;;;;;;;
2019/09/06 17:46:23;;;;;;;9;5;;;;;;;;;;;;;
2019/09/06 17:48:50;;;;;;;6.6;4.2;;;;;;;;;;;;;
2019/09/06 17:51:17;;;;;;;8.4;4.6;;;;;;;;;;;;;
2019/09/06 17:53:44;;;;;;;9.1;4.2;;;;;;;;;;;;;
2019/09/06 17:56:15;;;;;;;7.1;3.9;;;;;;;;;;;;;
2019/09/06 17:58:43;;;;;;;9.7;5.3;;;;;;;;;;;;;
2019/09/06 18:01:16;;;;;;;8.4;5.2;;;;;;;;;;;;;
2019/09/06 18:03:27;;;;;;;9.2;4.8;;;;;;;;;;;;;
2019/09/06 18:06:02;;;;;;;9.2;4.8;;;;;;;;;;;;;
2019/09/06 18:08:21;;;;;;;10.3;5.7;;;;;;;;;;;;;
2019/09/06 18:10:44;;;;;;;10.7;7.1;;;;;;;;;;;;;
2019/09/06 18:13:10;;;;;;;9.4;6.5;;;;;;;;;;;;;
2019/09/06 18:15:37;;;;;;;11;6.8;;;;;;;;;;;;;
2019/09/06 18:18:01;;;;;;;9.6;5.8;;;;;;;;;;;;;
2019/09/06 18:20:26;;;;;;;10.5;6.1;;;;;;;;;;;;;
2019/09/06 18:22:51;;;;;;;10.3;5.8;;;;;;;;;;;;;
2019/09/06 18:25:32;;;;;;;8.8;5.9;;;;;;;;;;;;;
2019/09/06 18:27:45;;;;;;;9;5.2;;;;;;;;;;;;;
2019/09/06 18:30:07;;;;;;;8.9;5.2;;;;;;;;;;;;;
2019/09/06 18:32:42;;;;;;;11.3;6;;;;;;;;;;;;;
2019/09/06 18:35:01;;;;;;;9.5;5.6;;;;;;;;;;;;;
2019/09/06 18:37:31;;;;;;;10;5.5;;;;;;;;;;;;;
2019/09/06 18:39:55;;;;;;;9.1;6;;;;;;;;;;;;;
2019/09/06 18:42:19;;;;;;;13;7.7;;;;;;;;;;;;;
2019/09/06 18:44:46;;;;;;;15.1;10.1;;;;;;;;;;;;;
2019/09/06 18:47:08;;;;;;;17.8;12.2;;;;;;;;;;;;;
2019/09/06 18:49:35;;;;;;;17.3;11.6;;;;;;;;;;;;;
2019/09/06 18:51:59;;;;;;;15;11;;;;;;;;;;;;;
2019/09/06 18:54:27;;;;;;;16.3;11.8;;;;;;;;;;;;;
2019/09/06 18:56:54;;;;;;;13.8;9.9;;;;;;;;;;;;;
2019/09/06 18:59:18;;;;;;;11.2;7.8;;;;;;;;;;;;;
2019/09/06 19:01:43;;;;;;;13.9;8.6;;;;;;;;;;;;;
2019/09/06 19:04:06;;;;;;;17.9;9.5;;;;;;;;;;;;;
2019/09/06 19:06:32;;;;;;;13.5;9.9;;;;;;;;;;;;;
2019/09/06 19:09:00;;;;;;;16.7;11.1;;;;;;;;;;;;;
2019/09/06 19:11:23;;;;;;;15.2;10;;;;;;;;;;;;;
2019/09/06 19:13:50;;;;;;;14.8;10.7;;;;;;;;;;;;;
2019/09/06 19:16:12;;;;;;;16;10.5;;;;;;;;;;;;;
2019/09/06 19:18:39;;;;;;;16;9.8;;;;;;;;;;;;;
2019/09/06 19:21:03;;;;;;;11.8;8.7;;;;;;;;;;;;;
2019/09/06 19:23:28;;;;;;;13.5;8;;;;;;;;;;;;;
2019/09/06 19:25:53;;;;;;;10.6;7.5;;;;;;;;;;;;;
2019/09/06 19:28:22;;;;;;;13.1;8.2;;;;;;;;;;;;;
2019/09/06 19:32:22;;;;;;;11.9;8.8;;;;;;;;;;;;;
2019/09/06 19:34:47;;;;;;;13;8;;;;;;;;;;;;;
2019/09/06 19:37:13;;;;;;;12.6;8.7;;;;;;;;;;;;;
2019/09/06 19:39:40;;;;;;;12.3;8.6;;;;;;;;;;;;;
2019/09/06 19:42:11;;;;;;;12.1;8.4;;;;;;;;;;;;;
2019/09/06 19:44:30;;;;;;;14.1;8.5;;;;;;;;;;;;;
2019/09/06 19:47:00;;;;;;;13.8;7.8;;;;;;;;;;;;;
2019/09/06 19:49:26;;;;;;;13.3;7.8;;;;;;;;;;;;;
2019/09/06 19:51:53;;;;;;;8.2;5.4;;;;;;;;;;;;;
2019/09/06 19:54:26;;;;;;;8.4;4.6;;;;;;;;;;;;;
2019/09/06 19:56:51;;;;;;;9.2;4.6;;;;;;;;;;;;;
2019/09/06 19:59:26;;;;;;;7.7;4.8;;;;;;;;;;;;;
2019/09/06 20:01:51;;;;;;;7;4.6;;;;;;;;;;;;;
2019/09/06 20:04:24;;;;;;;6;4.5;;;;;;;;;;;;;
2019/09/06 20:07:17;;;;;;;7.6;4.4;;;;;;;;;;;;;
2019/09/06 20:09:32;;;;;;;9.2;4.8;;;;;;;;;;;;;
2019/09/06 20:12:00;;;;;;;7.2;4.9;;;;;;;;;;;;;
2019/09/06 20:14:24;;;;;;;8.1;4.5;;;;;;;;;;;;;
2019/09/06 20:16:51;;;;;;;6.3;4.3;;;;;;;;;;;;;
2019/09/06 20:19:23;;;;;;;7.1;4.7;;;;;;;;;;;;;
2019/09/06 20:21:41;;;;;;;6.3;4.7;;;;;;;;;;;;;
2019/09/06 20:24:06;;;;;;;11;5.5;;;;;;;;;;;;;
2019/09/06 20:26:32;;;;;;;9.9;5.6;;;;;;;;;;;;;
2019/09/06 20:29:01;;;;;;;9.4;6;;;;;;;;;;;;;
2019/09/06 20:31:24;;;;;;;12.4;6.5;;;;;;;;;;;;;
2019/09/06 20:33:51;;;;;;;11.2;6.9;;;;;;;;;;;;;
2019/09/06 20:36:14;;;;;;;9.6;6.8;;;;;;;;;;;;;
2019/09/06 20:38:45;;;;;;;9;6.3;;;;;;;;;;;;;
2019/09/06 20:41:06;;;;;;;8;6.2;;;;;;;;;;;;;
2019/09/06 21:53:59;;;;;;;7.4;5.9;;;;;;;;;;;;;
2019/09/06 21:56:23;;;;;;;4.9;3.8;;;;;;;;;;;;;